Time;durP1;ratioP1;P1;durP2;ratioP2;P2;SDS_P1;SDS_P2;PMS_P1;PMS_P2;Temp;Humidity;BMP_temperature;BMP_pressure;BME280_temperature;BME280_humidity;BME280_pressure;Samples;Min_cycle;Max_cycle;Signal;HPM_P1;HPM_P2
2023/05/13 00:01:04;;;;;;;15.57;9.65;;;;;;;8.36;100.00;102639.56;5070393;28;20490;-70
2023/05/13 00:03:30;;;;;;;16.17;11.10;;;;;;;8.48;100.00;102704.88;5070194;28;20028;-70
2023/05/13 00:05:55;;;;;;;19.17;11.57;;;;;;;8.20;100.00;102687.28;5051937;28;20024;-70
2023/05/13 00:08:21;;;;;;;14.57;9.90;;;;;;;8.52;100.00;102763.31;5069626;28;20037;-70
2023/05/13 00:10:46;;;;;;;13.75;8.07;;;;;;;8.22;100.00;102736.31;5068286;28;20040;-70
2023/05/13 00:13:11;;;;;;;13.60;8.05;;;;;;;8.18;100.00;102791.09;5050863;28;20418;-70
2023/05/13 00:15:37;;;;;;;12.13;7.40;;;;;;;7.98;100.00;102793.91;5071711;28;20067;-70
2023/05/13 00:18:03;;;;;;;10.48;6.43;;;;;;;8.60;100.00;102882.69;5073407;28;20078;-70
2023/05/13 00:20:28;;;;;;;12.60;7.03;;;;;;;8.53;100.00;102884.22;5055545;28;20028;-69
2023/05/13 00:22:54;;;;;;;12.82;7.10;;;;;;;8.35;100.00;102871.03;5072898;28;20509;-70
2023/05/13 00:25:20;;;;;;;11.93;7.53;;;;;;;8.48;100.00;102926.31;5073215;28;20514;-70
2023/05/13 00:27:45;;;;;;;12.55;7.18;;;;;;;8.58;100.00;102958.75;5073783;28;20028;-70
2023/05/13 00:30:11;;;;;;;10.52;6.82;;;;;;;8.44;100.00;102966.75;5073180;28;20126;-70
2023/05/13 00:32:36;;;;;;;11.80;6.72;;;;;;;8.14;100.00;102994.53;5054644;28;20078;-70
2023/05/13 00:35:02;;;;;;;11.57;6.25;;;;;;;8.45;100.00;103058.09;5072991;28;20047;-69
2023/05/13 00:37:27;;;;;;;10.52;6.30;;;;;;;7.91;100.00;103008.19;5055220;28;20033;-70
2023/05/13 00:39:53;;;;;;;12.88;7.15;;;;;;;8.16;100.00;103063.88;5072723;28;20028;-70
2023/05/13 00:42:18;;;;;;;9.80;6.05;;;;;;;8.36;100.00;103108.50;5072896;28;20040;-69
2023/05/13 00:44:44;;;;;;;10.77;6.30;;;;;;;8.21;100.00;103105.44;5054849;28;20024;-70
2023/05/13 00:47:10;;;;;;;15.43;6.57;;;;;;;8.15;100.00;103101.84;5055073;28;20119;-70
2023/05/13 00:49:36;;;;;;;7.70;6.35;;;;;;;8.00;100.00;103119.97;5073065;28;20021;-70
2023/05/13 00:52:02;;;;;;;11.13;6.70;;;;;;;7.85;100.00;103109.31;5072874;28;20119;-70
2023/05/13 00:54:28;;;;;;;8.85;6.40;;;;;;;7.96;100.00;103147.66;5072719;28;20033;-69
2023/05/13 00:56:55;;;;;;;10.98;7.00;;;;;;;7.73;100.00;103179.78;5072884;28;20030;-69
2023/05/13 00:59:28;;;;;;;10.50;7.75;;;;;;;7.65;100.00;103199.78;5054905;28;20047;-70
2023/05/13 01:01:56;;;;;;;11.93;8.02;;;;;;;7.92;100.00;103288.56;5054639;28;20518;-69
2023/05/13 01:04:43;;;;;;;11.43;8.20;;;;;;;7.65;100.00;103310.31;5054599;28;20032;-69
2023/05/13 01:07:44;;;;;;;12.23;8.52;;;;;;;7.45;100.00;103328.94;5072544;28;20033;-70
2023/05/13 01:10:10;;;;;;;11.98;8.68;;;;;;;8.11;100.00;103439.59;5041127;28;20052;-68
2023/05/13 01:12:39;;;;;;;13.02;8.48;;;;;;;7.82;100.00;103431.72;5072405;28;20059;-70
2023/05/13 01:15:08;;;;;;;13.98;8.48;;;;;;;7.58;100.00;103424.84;5072661;28;20119;-69
2023/05/13 01:17:36;;;;;;;13.27;8.98;;;;;;;7.61;100.00;103495.84;5072411;28;20039;-70
2023/05/13 01:20:05;;;;;;;12.52;8.07;;;;;;;7.75;100.00;103545.41;5072561;28;20036;-70
2023/05/13 01:22:31;;;;;;;14.25;8.75;;;;;;;7.22;100.00;103525.44;5072303;28;20032;-70
2023/05/13 01:24:57;;;;;;;12.85;8.05;;;;;;;7.75;100.00;103646.72;5071692;28;20082;-69
2023/05/13 01:27:22;;;;;;;14.75;8.48;;;;;;;7.75;100.00;103661.91;5071901;28;20418;-70
2023/05/13 01:29:49;;;;;;;12.73;7.95;;;;;;;7.17;100.00;103620.50;5072136;28;20029;-72
2023/05/13 01:32:15;;;;;;;11.63;8.57;;;;;;;7.28;100.00;103713.00;5071929;28;20029;-70
2023/05/13 01:34:41;;;;;;;12.27;8.18;;;;;;;7.35;100.00;103808.63;5053854;28;20032;-70
2023/05/13 01:37:07;;;;;;;17.13;8.57;;;;;;;7.47;100.00;103864.91;5053923;28;20034;-70
2023/05/13 01:39:37;;;;;;;13.75;8.60;;;;;;;7.81;100.00;103925.63;5071651;28;20028;-69
2023/05/13 01:42:03;;;;;;;13.02;8.70;;;;;;;7.43;100.00;103893.41;5072194;28;20025;-70
2023/05/13 01:44:29;;;;;;;17.08;8.10;;;;;;;7.56;100.00;103916.00;5071989;28;20036;-70
2023/05/13 01:46:54;;;;;;;13.00;7.80;;;;;;;7.43;100.00;103905.19;5072025;28;20032;-70
2023/05/13 01:49:19;;;;;;;11.40;6.95;;;;;;;7.40;100.00;103905.94;5071959;28;20139;-71
2023/05/13 01:51:45;;;;;;;10.60;6.38;;;;;;;7.10;100.00;103847.91;5071871;28;20029;-71
2023/05/13 01:54:10;;;;;;;13.43;7.57;;;;;;;7.10;100.00;103868.13;5053551;28;20514;-71
2023/05/13 01:56:36;;;;;;;10.27;6.35;;;;;;;6.61;100.00;103806.69;5071585;28;20052;-71
2023/05/13 01:59:01;;;;;;;10.07;6.13;;;;;;;6.53;100.00;103800.38;5070317;28;20411;-70
2023/05/13 02:01:27;;;;;;;11.27;6.40;;;;;;;6.42;100.00;103842.78;5070308;28;20593;-70
2023/05/13 02:03:52;;;;;;;12.13;6.25;;;;;;;5.90;100.00;103811.41;5070255;28;20414;-70
2023/05/13 02:06:18;;;;;;;8.95;6.22;;;;;;;6.18;100.00;103898.78;5052339;28;20040;-71
2023/05/13 02:08:44;;;;;;;11.38;6.20;;;;;;;6.15;100.00;103912.09;5053109;28;20474;-70
2023/05/13 02:11:09;;;;;;;10.73;6.53;;;;;;;6.12;100.00;103954.88;5071801;28;20063;-70
2023/05/13 02:13:35;;;;;;;10.73;6.40;;;;;;;6.03;100.00;103967.91;5071090;28;20040;-70
2023/05/13 02:16:00;;;;;;;11.63;6.60;;;;;;;6.11;100.00;103998.63;5071629;28;20119;-70
2023/05/13 02:18:25;;;;;;;9.43;7.18;;;;;;;6.38;100.00;104063.31;5053118;28;20434;-70
2023/05/13 02:20:51;;;;;;;10.90;7.00;;;;;;;6.26;100.00;104019.66;5071122;28;20475;-71
2023/05/13 02:23:16;;;;;;;10.07;6.40;;;;;;;6.39;100.00;104054.06;5070347;28;20032;-70
2023/05/13 02:25:42;;;;;;;12.43;6.82;;;;;;;6.26;100.00;104052.50;5053120;28;20089;-70
2023/05/13 02:28:08;;;;;;;9.98;6.90;;;;;;;6.47;100.00;104129.53;5070766;28;20090;-72
2023/05/13 02:30:34;;;;;;;10.70;6.53;;;;;;;6.36;100.00;104133.13;5071052;28;20491;-71
2023/05/13 02:33:00;;;;;;;14.70;6.82;;;;;;;5.94;100.00;104096.19;5053261;28;20032;-71
2023/05/13 02:35:28;;;;;;;10.95;5.97;;;;;;;6.39;100.00;104163.63;5063254;28;20029;-69
2023/05/13 02:37:54;;;;;;;7.60;6.35;;;;;;;6.03;100.00;104113.53;5032222;28;20124;-69
2023/05/13 02:40:20;;;;;;;11.93;6.88;;;;;;;6.08;100.00;104161.00;5050529;28;20430;-70
2023/05/13 02:42:45;;;;;;;9.18;6.80;;;;;;;6.37;100.00;104212.34;5033192;28;20029;-70
2023/05/13 02:45:11;;;;;;;11.77;6.85;;;;;;;6.41;100.00;104209.22;5033034;28;20465;-70
2023/05/13 02:47:38;;;;;;;10.25;6.72;;;;;;;6.25;100.00;104192.28;5050820;28;20132;-70
2023/05/13 02:50:04;;;;;;;12.65;7.00;;;;;;;6.54;100.00;104254.63;5050464;28;20086;-69
2023/05/13 02:52:30;;;;;;;11.57;7.47;;;;;;;5.90;100.00;104187.69;5031936;28;20120;-69
2023/05/13 02:54:55;;;;;;;9.45;6.88;;;;;;;7.01;100.00;104345.06;5049766;28;20124;-70
2023/05/13 02:57:22;;;;;;;10.10;7.72;;;;;;;6.29;100.00;104275.09;5032736;28;20045;-70
2023/05/13 02:59:48;;;;;;;10.15;7.47;;;;;;;6.75;100.00;104359.56;5032692;28;20037;-70
2023/05/13 03:02:13;;;;;;;10.00;7.65;;;;;;;7.20;100.00;104457.50;5061471;28;20044;-70
2023/05/13 03:04:40;;;;;;;14.90;8.30;;;;;;;6.79;100.00;104433.16;5070256;28;20518;-73
2023/05/13 03:07:05;;;;;;;13.27;8.65;;;;;;;6.40;100.00;104892.53;5052565;28;20083;-70
2023/05/13 03:09:31;;;;;;;12.23;8.55;;;;;;;6.38;100.00;104675.00;5071294;28;20033;-73
2023/05/13 03:11:57;;;;;;;10.98;6.78;;;;;;;8.93;100.00;105060.31;5050342;28;20119;-71
2023/05/13 03:14:22;;;;;;;10.23;7.75;;;;;;;6.21;100.00;104710.94;5068897;28;20032;-70
2023/05/13 03:16:48;;;;;;;10.23;7.60;;;;;;;7.08;100.00;104885.34;5048908;28;20033;-71
2023/05/13 03:19:13;;;;;;;12.05;7.60;;;;;;;6.75;100.00;104880.59;5050573;28;20029;-72
2023/05/13 03:21:38;;;;;;;12.55;8.85;;;;;;;7.07;100.00;105032.94;5050232;28;20127;-73
2023/05/13 03:24:04;;;;;;;14.05;7.53;;;;;;;7.43;100.00;105162.03;5050633;28;20476;-74
2023/05/13 03:26:30;;;;;;;10.55;7.50;;;;;;;7.28;100.00;105224.28;5050592;28;20064;-71
2023/05/13 03:28:55;;;;;;;12.00;8.00;;;;;;;7.06;100.00;105278.34;5049870;28;20543;-73
2023/05/13 03:31:20;;;;;;;12.90;8.88;;;;;;;6.76;100.00;105447.38;5050771;28;20029;-73
2023/05/13 03:33:46;;;;;;;12.50;9.20;;;;;;;7.29;100.00;105732.47;5051018;28;20027;-75
2023/05/13 03:36:11;;;;;;;12.13;8.98;;;;;;;7.17;100.00;104601.59;5053131;28;20034;-72
2023/05/13 03:38:37;;;;;;;17.10;10.27;;;;;;;6.67;100.00;104687.88;5069754;28;20043;-72
2023/05/13 03:41:02;;;;;;;15.07;9.35;;;;;;;6.91;100.00;104648.09;5070632;28;20035;-72
2023/05/13 03:43:27;;;;;;;10.85;7.10;;;;;;;11.06;100.00;104483.28;5052221;28;20024;-71
2023/05/13 03:45:53;;;;;;;9.00;6.57;;;;;;;11.22;100.00;104515.38;5068921;28;20456;-70
2023/05/13 03:48:18;;;;;;;9.38;6.30;;;;;;;10.70;100.00;104624.25;5067384;28;20060;-73
2023/05/13 03:50:44;;;;;;;9.57;7.10;;;;;;;8.06;100.00;104810.56;5056188;28;20040;-73
2023/05/13 03:53:10;;;;;;;12.63;7.68;;;;;;;7.68;100.00;104866.50;5075006;28;20093;-74
2023/05/13 03:55:36;;;;;;;9.52;6.78;;;;;;;7.39;100.00;104789.50;5055904;28;20078;-74
2023/05/13 03:58:13;;;;;;;10.13;7.10;;;;;;;6.99;100.00;104460.50;5074170;28;20068;-74
2023/05/13 04:00:47;;;;;;;10.43;7.10;;;;;;;7.26;100.00;104032.59;5070896;28;20184;-74
2023/05/13 04:03:15;;;;;;;9.55;7.88;;;;;;;8.07;100.00;104016.41;5073622;28;20085;-74
2023/05/13 04:05:40;;;;;;;11.88;8.20;;;;;;;7.53;100.00;103936.09;5056046;28;20036;-74
2023/05/13 04:08:06;;;;;;;10.75;7.10;;;;;;;7.20;100.00;103807.94;5055763;28;20033;-73
2023/05/13 04:10:32;;;;;;;7.80;6.20;;;;;;;7.67;100.00;103848.13;5056085;28;20034;-73
2023/05/13 04:12:57;;;;;;;11.32;7.10;;;;;;;7.43;100.00;103826.72;5073963;28;20515;-73
2023/05/13 04:15:22;;;;;;;10.38;6.97;;;;;;;7.58;100.00;103807.19;5073884;28;20027;-74
2023/05/13 04:17:48;;;;;;;10.77;6.45;;;;;;;7.60;100.00;103821.66;5074408;28;20082;-74
2023/05/13 04:20:13;;;;;;;13.32;8.48;;;;;;;7.41;100.00;103800.47;5056081;28;20474;-75
2023/05/13 04:22:39;;;;;;;10.23;7.30;;;;;;;7.87;100.00;103827.09;5074695;28;20020;-75
2023/05/13 04:25:04;;;;;;;8.50;7.13;;;;;;;7.48;100.00;103772.13;5074298;28;20036;-73
2023/05/13 04:27:30;;;;;;;11.38;9.30;;;;;;;7.71;100.00;103769.81;5055655;28;20036;-74
2023/05/13 04:29:56;;;;;;;17.83;14.63;;;;;;;7.43;100.00;103768.50;5056261;28;20491;-73
2023/05/13 04:32:21;;;;;;;21.17;18.42;;;;;;;7.56;100.00;104404.78;5056183;28;20025;-73
2023/05/13 04:34:47;;;;;;;26.02;23.10;;;;;;;7.81;100.00;104400.25;5073678;28;20479;-74
2023/05/13 04:37:13;;;;;;;31.77;26.05;;;;;;;8.18;100.00;104400.56;5074378;28;20119;-74
2023/05/13 04:39:38;;;;;;;15.10;12.25;;;;;;;8.33;100.00;104410.69;5073777;28;20119;-74
2023/05/13 04:42:04;;;;;;;11.23;9.40;;;;;;;8.22;100.00;104353.47;5074197;28;20479;-74
2023/05/13 04:44:31;;;;;;;12.23;9.27;;;;;;;8.11;100.00;104317.41;5074405;28;20081;-74
2023/05/13 04:46:56;;;;;;;11.30;8.40;;;;;;;7.95;100.00;104157.72;5073872;28;20544;-73
2023/05/13 04:49:22;;;;;;;15.13;8.02;;;;;;;7.68;100.00;104035.66;5055785;28;20036;-73
2023/05/13 04:51:47;;;;;;;9.40;7.80;;;;;;;8.60;100.00;104075.59;5056212;28;20085;-73
2023/05/13 04:54:12;;;;;;;11.38;8.90;;;;;;;8.50;100.00;104025.25;5073355;28;20498;-74
2023/05/13 04:56:38;;;;;;;10.73;7.10;;;;;;;9.22;100.00;104047.09;5073725;28;20094;-74
2023/05/13 04:59:03;;;;;;;9.98;6.60;;;;;;;9.06;100.00;104034.53;5073920;28;20498;-74
2023/05/13 05:01:28;;;;;;;8.90;6.70;;;;;;;9.45;100.00;104054.00;5072488;28;20090;-74
2023/05/13 05:03:54;;;;;;;10.10;7.05;;;;;;;9.70;100.00;104031.38;5055348;28;20403;-73
2023/05/13 05:06:20;;;;;;;10.00;8.10;;;;;;;9.83;100.00;104031.06;5055262;28;20032;-74
2023/05/13 05:08:46;;;;;;;8.80;6.65;;;;;;;9.96;100.00;104029.88;5055638;28;20024;-74
2023/05/13 05:11:11;;;;;;;7.22;6.53;;;;;;;10.15;100.00;104019.66;5055101;28;20029;-74
2023/05/13 05:13:37;;;;;;;8.00;6.10;;;;;;;10.13;100.00;103971.28;5055402;28;20115;-74
2023/05/13 05:16:02;;;;;;;6.97;5.70;;;;;;;10.22;100.00;103945.34;5055454;28;20032;-74
2023/05/13 05:18:27;;;;;;;12.30;9.05;;;;;;;10.71;100.00;103936.16;5072675;28;20028;-74
2023/05/13 05:20:53;;;;;;;10.20;7.75;;;;;;;10.72;100.00;103907.31;5073080;28;20089;-74
2023/05/13 05:23:18;;;;;;;7.82;5.88;;;;;;;10.93;100.00;103891.91;5072795;28;20040;-74
2023/05/13 05:25:43;;;;;;;7.82;5.45;;;;;;;10.94;100.00;103853.78;5072961;28;20031;-75
2023/05/13 05:28:09;;;;;;;8.20;5.35;;;;;;;10.53;100.00;103798.06;5055398;28;20039;-74
2023/05/13 05:30:38;;;;;;;8.00;5.07;;;;;;;10.97;100.00;103809.72;5055561;28;20197;-74
2023/05/13 05:33:07;;;;;;;8.82;6.20;;;;;;;11.35;100.00;103819.41;5073352;28;20033;-73
2023/05/13 05:35:36;;;;;;;10.35;7.60;;;;;;;11.88;100.00;103847.44;5055203;28;20029;-74
2023/05/13 05:38:06;;;;;;;9.85;6.97;;;;;;;11.80;100.00;103763.88;5054754;28;20024;-74
2023/05/13 05:40:40;;;;;;;7.38;4.88;;;;;;;12.08;100.00;103674.53;5055223;28;20479;-74
2023/05/13 05:43:12;;;;;;;9.98;6.47;;;;;;;12.22;100.00;103512.47;5055202;28;20028;-74
2023/05/13 05:45:39;;;;;;;9.70;5.70;;;;;;;12.20;100.00;103178.19;5054819;28;20075;-73
2023/05/13 05:48:05;;;;;;;9.43;5.55;;;;;;;12.03;100.00;103094.59;5072465;28;20033;-75
2023/05/13 05:50:31;;;;;;;6.80;5.80;;;;;;;11.75;100.00;104010.19;5055210;28;20031;-74
2023/05/13 05:52:58;;;;;;;7.72;5.95;;;;;;;12.27;100.00;104375.94;5055014;28;20035;-75
2023/05/13 05:55:30;;;;;;;9.63;6.93;;;;;;;12.58;100.00;104439.16;5072700;28;20041;-74
2023/05/13 05:57:57;;;;;;;9.23;7.45;;;;;;;13.23;100.00;104314.53;5072233;28;20031;-75
2023/05/13 06:00:23;;;;;;;11.50;8.05;;;;;;;13.38;100.00;104153.06;5053878;28;20553;-74
2023/05/13 06:02:48;;;;;;;10.27;6.82;;;;;;;13.82;100.00;104038.31;5071693;28;20032;-74
2023/05/13 06:05:14;;;;;;;10.23;8.20;;;;;;;13.48;100.00;103787.72;5072178;28;20468;-74
2023/05/13 06:07:39;;;;;;;8.30;5.30;;;;;;;12.51;100.00;103541.16;5072579;28;20056;-73
2023/05/13 06:10:06;;;;;;;8.00;5.47;;;;;;;13.67;100.00;103536.63;5072452;28;20028;-73
2023/05/13 06:12:31;;;;;;;7.28;5.30;;;;;;;14.11;100.00;103416.19;5053582;28;20031;-73
2023/05/13 06:14:57;;;;;;;7.25;5.63;;;;;;;13.88;100.00;103275.19;5072094;28;20036;-73
2023/05/13 06:17:23;;;;;;;9.02;5.57;;;;;;;13.96;100.00;103080.84;5072478;28;20028;-73
2023/05/13 06:19:48;;;;;;;6.85;4.95;;;;;;;13.29;100.00;102852.75;5072171;28;20024;-73
2023/05/13 06:22:14;;;;;;;7.75;5.30;;;;;;;14.15;100.00;102862.63;5072337;28;20058;-73
2023/05/13 06:24:41;;;;;;;10.15;5.43;;;;;;;14.45;100.00;102766.34;5054075;28;20031;-74
2023/05/13 06:27:07;;;;;;;8.45;5.63;;;;;;;14.31;100.00;102639.19;5072032;28;20119;-74
2023/05/13 06:29:32;;;;;;;10.10;5.60;;;;;;;15.02;100.00;102639.91;5071568;28;20113;-73
2023/05/13 06:31:58;;;;;;;10.15;5.63;;;;;;;14.00;100.00;102517.22;5072157;28;20032;-74
2023/05/13 06:34:23;;;;;;;9.50;6.65;;;;;;;15.40;100.00;102552.56;5071781;28;20053;-74
2023/05/13 06:36:49;;;;;;;7.97;5.30;;;;;;;14.82;100.00;102454.66;5071578;28;20123;-73
2023/05/13 06:39:14;;;;;;;7.50;5.20;;;;;;;14.85;100.00;102443.56;5053880;28;20039;-73
2023/05/13 06:41:40;;;;;;;8.88;5.20;;;;;;;14.93;100.00;102350.44;5053678;28;20028;-73
2023/05/13 06:44:13;;;;;;;7.05;5.68;;;;;;;14.13;100.00;102350.88;5053846;28;20089;-73
2023/05/13 06:46:39;;;;;;;9.57;6.32;;;;;;;15.00;100.00;102321.34;5071563;28;20064;-74
2023/05/13 06:49:05;;;;;;;12.73;6.47;;;;;;;15.04;100.00;102328.13;5071130;28;20153;-75
2023/05/13 06:51:31;;;;;;;9.77;5.80;;;;;;;15.60;100.00;102333.63;5071733;28;20035;-74
2023/05/13 06:53:57;;;;;;;14.20;5.55;;;;;;;15.58;100.00;102316.53;5071763;28;20032;-74
2023/05/13 06:56:29;;;;;;;10.15;5.43;;;;;;;15.00;100.00;102285.47;5071347;28;20045;-74
2023/05/13 06:58:55;;;;;;;8.48;5.32;;;;;;;14.96;100.00;102324.78;5070438;28;20129;-74
2023/05/13 07:01:20;;;;;;;9.63;5.03;;;;;;;15.09;100.00;102294.78;5071475;28;20088;-73
2023/05/13 07:03:45;;;;;;;8.68;4.90;;;;;;;14.82;100.00;102269.41;5071498;28;20035;-73
2023/05/13 07:06:11;;;;;;;11.88;5.95;;;;;;;14.82;100.00;102277.06;5071023;28;20025;-74
2023/05/13 07:08:37;;;;;;;11.38;6.50;;;;;;;15.51;100.00;102335.41;5071356;28;20032;-75
2023/05/13 07:11:03;;;;;;;10.15;6.15;;;;;;;15.53;100.00;102326.84;5071091;28;20027;-74
2023/05/13 07:13:29;;;;;;;14.77;6.25;;;;;;;16.00;100.00;102338.28;5071399;28;20582;-74
2023/05/13 07:15:56;;;;;;;7.90;5.20;;;;;;;15.65;100.00;102313.03;5053513;28;20357;-74
2023/05/13 07:18:22;;;;;;;7.35;5.60;;;;;;;14.63;100.00;102240.56;5071299;28;20051;-74
2023/05/13 07:20:47;;;;;;;8.10;4.72;;;;;;;15.75;100.00;102283.00;5053250;28;20124;-74
2023/05/13 07:23:13;;;;;;;5.13;3.28;;;;;;;15.18;100.00;102208.41;5052837;28;20071;-74
2023/05/13 07:25:40;;;;;;;5.18;3.00;;;;;;;16.10;100.00;102148.19;5075219;28;20115;-74
2023/05/13 07:28:05;;;;;;;5.35;2.90;;;;;;;15.97;100.00;102117.63;5057534;28;20499;-76
2023/05/13 07:30:31;;;;;;;3.28;2.60;;;;;;;16.88;100.00;102086.91;5076128;28;20028;-75
2023/05/13 07:32:56;;;;;;;6.93;3.28;;;;;;;15.76;100.00;102005.94;5057631;28;20123;-75
2023/05/13 07:35:22;;;;;;;5.38;2.72;;;;;;;15.82;100.00;101926.31;5075824;28;20020;-75
2023/05/13 07:37:47;;;;;;;5.15;3.10;;;;;;;16.26;100.00;101925.50;5056681;28;20039;-76
2023/05/13 07:40:12;;;;;;;6.85;3.67;;;;;;;16.54;100.00;101793.06;5075160;28;20054;-75
2023/05/13 07:42:39;;;;;;;4.90;2.92;;;;;;;17.50;100.00;101814.66;5057358;28;20043;-75
2023/05/13 07:45:06;;;;;;;6.80;3.00;;;;;;;16.69;100.00;101699.41;5056681;28;20090;-75
2023/05/13 07:47:32;;;;;;;5.25;3.00;;;;;;;17.30;100.00;101695.16;5075017;28;20115;-76
2023/05/13 07:49:57;;;;;;;5.03;3.60;;;;;;;17.60;100.00;101708.06;5076247;28;20036;-76
2023/05/13 07:52:23;;;;;;;9.65;4.38;;;;;;;17.69;100.00;101610.06;5075806;28;20032;-76
2023/05/13 07:54:49;;;;;;;7.13;4.50;;;;;;;18.64;100.00;101667.00;5074969;28;20029;-75
2023/05/13 07:57:14;;;;;;;6.72;4.45;;;;;;;17.00;100.00;101549.50;5057182;28;20569;-75
2023/05/13 07:59:40;;;;;;;5.38;3.25;;;;;;;18.54;100.00;101554.81;5075220;28;20041;-75
2023/05/13 08:02:05;;;;;;;7.85;2.88;;;;;;;17.55;100.00;101517.84;5056325;28;20036;-75
2023/05/13 08:04:31;;;;;;;5.18;3.13;;;;;;;18.04;100.00;101474.16;5074820;28;20028;-74
2023/05/13 08:06:57;;;;;;;5.20;2.85;;;;;;;17.63;100.00;101435.31;5056719;28;20178;-74
2023/05/13 08:09:23;;;;;;;5.55;2.60;;;;;;;17.44;100.00;101355.31;5055996;28;20036;-77
2023/05/13 08:11:49;;;;;;;5.30;2.60;;;;;;;17.71;100.00;101392.13;5075012;28;20024;-74
2023/05/13 08:14:14;;;;;;;4.18;2.65;;;;;;;17.49;100.00;101376.59;5074496;28;20409;-75
2023/05/13 08:16:40;;;;;;;4.57;2.72;;;;;;;18.03;100.00;101324.91;5074610;28;20036;-73
2023/05/13 08:19:05;;;;;;;6.32;2.40;;;;;;;17.79;100.00;101356.69;5056539;28;20068;-74
2023/05/13 08:21:31;;;;;;;7.07;2.60;;;;;;;17.57;100.00;101284.56;5074499;28;20102;-76
2023/05/13 08:23:57;;;;;;;5.70;2.72;;;;;;;17.63;100.00;101296.41;5074698;28;20029;-75
2023/05/13 08:26:22;;;;;;;4.15;2.88;;;;;;;18.33;100.00;101279.16;5056142;28;20162;-74
2023/05/13 08:28:48;;;;;;;4.28;2.60;;;;;;;19.35;100.00;101272.34;5073602;28;20163;-75
2023/05/13 08:31:13;;;;;;;4.50;2.47;;;;;;;19.03;100.00;101198.09;5073709;28;20542;-74
2023/05/13 08:33:44;;;;;;;4.38;2.40;;;;;;;18.41;100.00;101234.19;5056138;28;20035;-76
2023/05/13 08:36:10;;;;;;;5.00;2.60;;;;;;;18.69;100.00;101159.19;5073679;28;20024;-75
2023/05/13 08:38:38;;;;;;;4.72;2.58;;;;;;;18.41;100.00;101140.59;5074079;28;20139;-75
2023/05/13 08:41:05;;;;;;;6.22;2.85;;;;;;;19.17;100.00;101182.03;5073805;28;20028;-75
2023/05/13 08:43:31;;;;;;;6.45;2.70;;;;;;;18.37;100.00;101191.41;5056039;28;20111;-75
2023/05/13 08:46:02;;;;;;;5.32;2.58;;;;;;;19.05;100.00;101155.06;5074022;28;20030;-75
2023/05/13 08:48:30;;;;;;;17.80;7.40;;;;;;;18.67;100.00;101159.28;5056274;28;20024;-76
2023/05/13 08:50:56;;;;;;;5.50;2.95;;;;;;;17.88;100.00;101081.88;5073850;28;20033;-73
2023/05/13 08:53:24;;;;;;;9.85;4.60;;;;;;;19.43;100.00;101136.13;5073261;28;20024;-75
2023/05/13 08:55:51;;;;;;;3.42;2.50;;;;;;;19.38;100.00;101122.63;5073670;28;20135;-76
2023/05/13 08:58:16;;;;;;;3.67;2.58;;;;;;;19.22;100.00;101088.06;5056359;28;20062;-76
2023/05/13 09:00:42;;;;;;;3.00;2.03;;;;;;;19.57;100.00;101089.06;5074128;28;20516;-76
2023/05/13 09:03:07;;;;;;;6.72;3.10;;;;;;;18.96;100.00;101084.09;5074135;28;20028;-75
2023/05/13 09:05:35;;;;;;;4.97;2.35;;;;;;;19.01;100.00;101006.56;5073178;28;20032;-74
2023/05/13 09:08:08;;;;;;;6.75;2.50;;;;;;;18.36;100.00;101035.22;5073738;28;20385;-76
2023/05/13 09:10:33;;;;;;;3.83;2.60;;;;;;;18.74;100.00;101006.06;5074480;28;20024;-76
2023/05/13 09:13:00;;;;;;;4.53;2.78;;;;;;;20.75;100.00;101076.25;5056028;28;20135;-76
2023/05/13 09:15:26;;;;;;;4.10;2.60;;;;;;;19.38;100.00;101028.91;5056006;28;20032;-76
2023/05/13 09:18:03;;;;;;;7.03;2.55;;;;;;;20.67;100.00;101009.44;5073864;28;20056;-75
2023/05/13 09:20:29;;;;;;;6.78;3.17;;;;;;;20.36;100.00;101047.28;5070109;28;20029;-75
2023/05/13 09:22:57;;;;;;;3.58;2.28;;;;;;;19.28;100.00;101000.13;5073679;28;20041;-76
2023/05/13 09:25:24;;;;;;;4.93;2.22;;;;;;;19.64;100.00;100982.91;5056235;28;20032;-75
2023/05/13 09:27:56;;;;;;;8.00;2.90;;;;;;;19.67;100.00;100938.03;5073672;28;20064;-76
2023/05/13 09:30:22;;;;;;;3.80;2.28;;;;;;;20.42;100.00;100990.94;5073479;28;20039;-76
2023/05/13 09:33:09;;;;;;;3.17;2.00;;;;;;;19.11;100.00;100958.81;5073678;28;20119;-76
2023/05/13 09:35:52;;;;;;;7.93;3.88;;;;;;;20.74;100.00;100938.38;5072969;28;20082;-76
2023/05/13 09:38:24;;;;;;;5.78;3.10;;;;;;;20.95;100.00;100985.53;5073082;28;20475;-75
2023/05/13 09:40:50;;;;;;;4.60;1.70;;;;;;;20.28;100.00;100967.59;5054863;28;20076;-76
2023/05/13 09:43:16;;;;;;;7.57;2.95;;;;;;;20.18;100.00;100876.00;5073434;28;20032;-76
2023/05/13 09:45:42;;;;;;;4.07;2.80;;;;;;;19.79;100.00;100950.31;5072858;28;20093;-74
2023/05/13 09:48:08;;;;;;;3.40;1.63;;;;;;;20.50;100.00;100890.59;5071897;28;20036;-75
2023/05/13 09:50:33;;;;;;;3.63;1.80;;;;;;;20.08;100.00;100923.88;5072795;28;20453;-75
2023/05/13 09:53:10;;;;;;;5.95;1.95;;;;;;;20.47;100.00;100918.38;5072712;28;20640;-76
2023/05/13 09:55:36;;;;;;;4.18;1.85;;;;;;;20.02;100.00;100851.88;5072883;28;20055;-76
2023/05/13 09:58:08;;;;;;;5.13;2.03;;;;;;;21.11;100.00;100815.66;5054907;28;20033;-76
2023/05/13 10:00:34;;;;;;;3.33;1.73;;;;;;;20.04;100.00;100906.88;5054709;28;20024;-76
2023/05/13 10:03:01;;;;;;;5.75;1.88;;;;;;;19.70;100.00;100878.53;5055038;28;20031;-75
2023/05/13 10:05:26;;;;;;;3.70;1.70;;;;;;;20.01;100.00;100907.00;5072340;28;20047;-75
2023/05/13 10:07:52;;;;;;;3.13;1.63;;;;;;;19.92;100.00;100847.28;5071928;28;20451;-75
2023/05/13 10:10:18;;;;;;;5.20;1.95;;;;;;;21.12;100.00;100842.34;5054175;28;20039;-76
2023/05/13 10:12:44;;;;;;;3.13;1.92;;;;;;;20.96;97.52;100912.19;5072280;28;20471;-75
2023/05/13 10:15:10;;;;;;;3.75;1.88;;;;;;;20.70;98.33;100895.53;5054478;28;20119;-75
2023/05/13 10:17:36;;;;;;;2.40;1.70;;;;;;;20.73;100.00;100810.06;5071535;28;20541;-74
2023/05/13 10:20:04;;;;;;;2.60;1.80;;;;;;;20.25;100.00;100890.25;5072093;28;20291;-75
2023/05/13 10:22:32;;;;;;;4.18;1.70;;;;;;;21.00;99.48;100885.22;5071264;28;20060;-75
2023/05/13 10:24:59;;;;;;;4.25;1.83;;;;;;;20.42;97.76;100889.38;5054348;28;20032;-75
2023/05/13 10:27:28;;;;;;;2.70;1.88;;;;;;;20.09;99.70;100827.41;5071989;28;20032;-76
2023/05/13 10:29:55;;;;;;;2.65;1.70;;;;;;;20.05;100.00;100815.56;5072001;28;20076;-75
2023/05/13 10:32:25;;;;;;;3.50;1.83;;;;;;;20.61;97.99;100834.00;5054215;28;20025;-75
2023/05/13 10:35:11;;;;;;;4.43;2.00;;;;;;;21.10;98.26;100815.72;5054089;28;20029;-76
2023/05/13 10:37:59;;;;;;;3.70;1.73;;;;;;;19.76;98.27;100826.59;5071642;28;20086;-75
2023/05/13 10:40:39;;;;;;;2.67;1.70;;;;;;;21.69;95.65;100817.41;5071919;28;20446;-76
2023/05/13 10:43:10;;;;;;;4.63;1.85;;;;;;;20.82;92.63;100875.91;5072142;28;20509;-76
2023/05/13 10:45:36;;;;;;;;;;;;;;;21.25;95.50;100867.41;5054467;28;20141;-75
2023/05/13 10:48:05;;;;;;;2.95;1.60;;;;;;;20.98;91.62;100835.34;5071616;28;20007;-76
2023/05/13 10:50:40;;;;;;;4.28;1.80;;;;;;;20.19;92.88;100877.66;5054179;28;20113;-75
2023/05/13 10:53:17;;;;;;;4.05;1.65;;;;;;;20.37;95.22;100875.84;5072087;28;20088;-75
2023/05/13 10:55:45;;;;;;;3.60;1.70;;;;;;;20.75;93.08;100825.50;5071975;28;20132;-75
2023/05/13 10:58:12;;;;;;;3.95;1.42;;;;;;;20.25;93.16;100884.25;5071202;28;20028;-76
2023/05/13 11:00:42;;;;;;;3.05;1.90;;;;;;;21.06;90.81;100878.91;5053549;28;20036;-76
2023/05/13 11:03:08;;;;;;;4.43;1.90;;;;;;;20.92;92.27;100882.25;5071765;28;20056;-76
2023/05/13 11:05:34;;;;;;;6.00;1.92;;;;;;;20.57;89.16;100870.44;5053746;28;20537;-75
2023/05/13 11:07:59;;;;;;;6.72;1.90;;;;;;;20.69;91.50;100831.00;5071546;28;20119;-75
2023/05/13 11:10:28;;;;;;;4.05;1.60;;;;;;;21.89;89.13;100855.91;5071171;28;20036;-75
2023/05/13 11:13:08;;;;;;;2.67;1.67;;;;;;;21.27;84.17;100885.47;5071215;28;20028;-75
2023/05/13 11:15:48;;;;;;;2.78;1.83;;;;;;;21.46;81.14;100880.88;5071216;28;20035;-75